Impacts TAF Board INFO
FOR SITUATIONAL AWARENESS. NOT TO BE USED FOR FLIGHT PLANNING PURPOSES.
IDs:

KSFO - San Francisco Intl, CA, US

Issued at 2320 UTC 17 Aug 2018
Updated at 0128 UTC 18 Aug 2018
Potential Impact None Slight Moderate High
Time0056Z 18/02Z 18/03Z 18/04Z 18/05Z 18/06Z 18/07Z 18/08Z 18/09Z 18/10Z 18/11Z 18/12Z 18/13Z 18/14Z>>
Type OBS PRVL PRVL PRVL PRVL PRVL PRVL PRVL PRVL PRVL PRVL PRVL
  [TEMP]  
PRVL
  [TEMP]  
PRVL
  [TEMP]  
VIS 10 >6 >6 >6 >6 >6 >6 >6 >6 >6 >6 >6 >6 >6
CIG -- -- -- -- -- -- -- -- -- -- -- --
  [10]  
--
  [10]  
--
  [10]  
Cover FEW SKC SKC SKC SCT SCT SCT SCT SCT SCT SCT SCT
  [BKN]  
SCT
  [BKN]  
SCT
  [BKN]  
FltCat VFR VFR VFR VFR VFR VFR VFR VFR VFR VFR VFR VFR
  [MVFR]  
VFR
  [MVFR]  
VFR
  [MVFR]  
WX -- -- -- -- -- -- -- -- -- -- -- --
  [--]  
--
  [--]  
--
  [--]  
WDir 300 300 300 300 290 290 290 290 290 290 290 290
[290]
290
[290]
290
[290]
WSpd 17 16 16 16 7 7 7 7 7 7 7 7
  [7]  
7
  [7]  
7
  [7]  
WGst -- 21 21 21 -- -- -- -- -- -- -- --
  [--]  
--
  [--]  
--
  [--]  

Raw TAF
KSFO 172320Z 1800/1906 30016G21KT P6SM SKC
  FM180430 29007KT P6SM SCT010
  TEMPO 1812/1816 BKN010
  FM181700 34005KT P6SM FEW011
  FM182100 29014KT P6SM SKC
  FM190400 29008KT P6SM SKC


Raw METAR
KSFO 180056Z 30017KT 10SM FEW007 18/12 A2999 RMK AO2 PK WND 29027/0000 SLP157 T01780117 $
KSFO 172356Z 29021KT 10SM FEW009 18/12 A3001 RMK AO2 PK WND 30026/2325 SLP160 T01830117 10217 20183 56013 $
KSFO 172256Z 29021KT 10SM FEW009 19/12 A3002 RMK AO2 PK WND 29026/2247 SLP164 T01940117 $

METAR Board
Radar Display
Forecast Discussion

FOR SITUATIONAL AWARENESS. NOT TO BE USED FOR FLIGHT PLANNING PURPOSES.